Onil, Spain
Current Conditions -  °F | °C
As of 12:00 AM on Saturday 29 Nov 2014 (Local Time) from LEAL Reporting Station
Few Clouds Few Clouds  
Wind Chill: 63°   Ceiling: Unl
Heat Index: 63°   Visibility: 6mi
Dew Point: 57°   Wind: 13mph
Humidity: 82%   Direction: 110°ESE
Pressure: 29.29"   Gusts: NA
Location:  38.63°N, 0.67°W
Report Text: LEAL 282300Z 11011KT 080V150 9999 FEW036 17/14 Q0992 NOSIG
Loading
Personal Weather Stations






























Interactive Weather Map New forecast layout! Learn more

10-Day Weather Forecast

Advertisements
Track Severe Weather on mobile